createdAt,value
2018-04-20T00:00:06.141Z,17.83
2018-04-20T00:02:31.944Z,22.27
2018-04-20T00:04:57.717Z,21.30
2018-04-20T00:07:23.500Z,18.93
2018-04-20T00:09:49.304Z,14.57
2018-04-20T00:12:15.086Z,18.80
2018-04-20T00:14:40.882Z,17.63
2018-04-20T00:17:06.660Z,14.87
2018-04-20T00:19:32.457Z,16.43
2018-04-20T00:21:58.277Z,19.20
2018-04-20T00:24:24.077Z,25.63
2018-04-20T00:26:49.869Z,28.23
2018-04-20T00:29:15.744Z,15.83
2018-04-20T00:31:41.485Z,14.67
2018-04-20T00:34:07.272Z,18.20
2018-04-20T00:36:33.237Z,16.63
2018-04-20T00:38:59.021Z,18.10
2018-04-20T00:41:24.809Z,13.50
2018-04-20T00:43:50.604Z,21.90
2018-04-20T00:46:16.388Z,16.20
2018-04-20T00:48:42.185Z,20.73
2018-04-20T00:51:08.146Z,22.20
2018-04-20T00:53:46.479Z,18.57
2018-04-20T00:56:12.263Z,16.63
2018-04-20T00:58:38.049Z,13.40
2018-04-20T01:01:03.893Z,15.47
2018-04-20T01:03:29.664Z,14.27
2018-04-20T01:05:55.447Z,15.10
2018-04-20T01:08:21.244Z,16.67
2018-04-20T01:10:47.017Z,15.43
2018-04-20T01:13:12.808Z,18.10
2018-04-20T01:15:38.592Z,16.50
2018-04-20T01:18:04.369Z,18.40
2018-04-20T01:20:30.153Z,15.27
2018-04-20T01:22:55.929Z,37.47
2018-04-20T01:25:21.709Z,18.47
2018-04-20T01:27:47.513Z,15.20
2018-04-20T01:30:13.277Z,19.93
2018-04-20T01:32:39.052Z,21.43
2018-04-20T01:35:04.872Z,14.97
2018-04-20T01:37:30.659Z,16.13
2018-04-20T01:39:56.453Z,14.93
2018-04-20T01:42:22.265Z,16.07
2018-04-20T01:44:48.039Z,25.17
2018-04-20T01:47:13.828Z,15.70
2018-04-20T01:49:39.645Z,23.70
2018-04-20T01:52:05.424Z,18.40
2018-04-20T01:54:31.325Z,19.57
2018-04-20T01:56:57.105Z,18.50
2018-04-20T01:59:22.919Z,23.63
2018-04-20T02:01:48.716Z,21.30
2018-04-20T02:04:14.491Z,22.53
2018-04-20T02:06:40.286Z,27.00
2018-04-20T02:09:06.068Z,16.90
2018-04-20T02:11:31.877Z,23.83
2018-04-20T02:13:57.654Z,26.83
2018-04-20T02:16:23.444Z,22.07
2018-04-20T02:18:49.569Z,28.63
2018-04-20T02:21:15.335Z,21.77
2018-04-20T02:23:41.142Z,21.00
2018-04-20T02:26:06.945Z,19.97
2018-04-20T02:28:32.718Z,22.37
2018-04-20T02:30:58.541Z,25.13
2018-04-20T02:33:24.337Z,25.03
2018-04-20T02:35:50.110Z,26.90
2018-04-20T02:38:15.895Z,25.77
2018-04-20T02:40:41.702Z,29.20
2018-04-20T02:43:07.837Z,22.73
2018-04-20T02:45:33.617Z,23.67
2018-04-20T02:47:59.403Z,23.30
2018-04-20T02:50:25.217Z,32.90
2018-04-20T02:52:51.020Z,30.17
2018-04-20T02:55:16.825Z,29.30
2018-04-20T02:57:42.852Z,24.00
2018-04-20T03:00:08.628Z,22.43
2018-04-20T03:02:34.410Z,22.30
2018-04-20T03:05:00.206Z,23.03
2018-04-20T03:07:26.016Z,24.00
2018-04-20T03:09:51.791Z,27.40
2018-04-20T03:12:17.588Z,24.37
2018-04-20T03:14:43.393Z,28.90
2018-04-20T03:17:09.170Z,51.00
2018-04-20T03:19:34.957Z,53.60
2018-04-20T03:22:00.765Z,85.57
2018-04-20T03:24:26.545Z,39.17
2018-04-20T03:26:52.355Z,41.73
2018-04-20T03:29:18.149Z,30.20
2018-04-20T03:31:43.916Z,56.57
2018-04-20T03:34:09.690Z,26.00
2018-04-20T03:36:35.501Z,31.73
2018-04-20T03:39:01.282Z,32.07
2018-04-20T03:41:27.064Z,27.50
2018-04-20T03:43:52.843Z,41.37
2018-04-20T03:46:18.648Z,37.67
2018-04-20T03:48:44.443Z,41.20
2018-04-20T03:51:10.225Z,32.63
2018-04-20T03:53:36.020Z,35.83
2018-04-20T03:56:01.797Z,31.03
2018-04-20T03:58:27.585Z,33.73
2018-04-20T04:00:53.410Z,30.10
2018-04-20T04:03:19.198Z,34.03
2018-04-20T04:05:44.964Z,36.00
2018-04-20T04:08:10.790Z,35.60
2018-04-20T04:10:36.590Z,32.50
2018-04-20T04:13:02.386Z,42.67
2018-04-20T04:15:28.161Z,34.40
2018-04-20T04:18:06.445Z,28.63
2018-04-20T04:20:36.045Z,34.43
2018-04-20T04:23:14.233Z,36.90
2018-04-20T04:25:52.474Z,28.00
2018-04-20T04:28:21.649Z,31.20
2018-04-20T04:30:47.465Z,33.60
2018-04-20T04:33:13.232Z,31.13
2018-04-20T04:35:39.041Z,34.80
2018-04-20T04:38:04.838Z,26.17
2018-04-20T04:40:30.638Z,28.30
2018-04-20T04:42:56.434Z,35.13
2018-04-20T04:45:22.217Z,30.10
2018-04-20T04:47:48.010Z,26.70
2018-04-20T04:50:14.020Z,57.30
2018-04-20T04:52:39.801Z,40.60
2018-04-20T04:55:05.608Z,38.00
2018-04-20T04:57:31.404Z,68.47
2018-04-20T04:59:57.189Z,66.00
2018-04-20T05:02:22.973Z,43.60
2018-04-20T05:04:48.785Z,44.53
2018-04-20T05:07:14.553Z,32.70
2018-04-20T05:09:40.341Z,44.37
2018-04-20T05:12:06.149Z,44.80
2018-04-20T05:14:31.930Z,44.53
2018-04-20T05:16:57.732Z,34.13
2018-04-20T05:19:23.562Z,40.17
2018-04-20T05:21:49.357Z,39.50
2018-04-20T05:24:15.138Z,36.03
2018-04-20T05:26:40.939Z,32.80
2018-04-20T05:29:06.727Z,52.90
2018-04-20T05:31:32.504Z,52.50
2018-04-20T05:33:58.301Z,61.83
2018-04-20T05:36:24.076Z,105.60
2018-04-20T05:38:49.861Z,39.87
2018-04-20T05:41:15.665Z,49.33
2018-04-20T05:43:41.470Z,33.37
2018-04-20T05:46:07.267Z,76.87
2018-04-20T05:48:33.081Z,32.07
2018-04-20T05:50:58.879Z,58.07
2018-04-20T05:53:24.677Z,38.83
2018-04-20T05:55:50.709Z,46.27
2018-04-20T05:58:16.526Z,62.70
2018-04-20T06:00:42.309Z,45.03
2018-04-20T06:03:08.117Z,40.60
2018-04-20T06:05:33.942Z,42.00
2018-04-20T06:07:59.758Z,42.53
2018-04-20T06:10:25.554Z,92.73
2018-04-20T06:12:51.388Z,47.23
2018-04-20T06:15:17.213Z,89.47
2018-04-20T06:17:43.066Z,74.83
2018-04-20T06:20:08.840Z,45.13
2018-04-20T06:22:34.676Z,44.20
2018-04-20T06:25:00.518Z,39.30
2018-04-20T06:27:26.321Z,47.57
2018-04-20T06:29:52.097Z,41.63
2018-04-20T06:32:17.924Z,40.10
2018-04-20T06:34:43.712Z,59.67
2018-04-20T06:37:09.500Z,45.73
2018-04-20T06:39:35.293Z,52.57
2018-04-20T06:42:01.080Z,35.13
2018-04-20T06:44:26.890Z,34.23
2018-04-20T06:46:52.669Z,29.13
2018-04-20T06:49:18.450Z,30.83
2018-04-20T06:51:44.299Z,38.20
2018-04-20T06:54:10.063Z,31.90
2018-04-20T06:56:35.873Z,29.53
2018-04-20T06:59:01.678Z,33.83
2018-04-20T07:01:27.460Z,28.27
2018-04-20T07:03:53.269Z,29.80
2018-04-20T07:06:19.104Z,29.60
2018-04-20T07:08:44.885Z,31.80
2018-04-20T07:11:10.697Z,34.07
2018-04-20T07:13:36.477Z,33.20
2018-04-20T07:16:02.273Z,29.40
2018-04-20T07:18:28.062Z,32.10
2018-04-20T07:20:53.869Z,42.43
2018-04-20T07:23:19.762Z,28.33
2018-04-20T07:25:45.533Z,35.67
2018-04-20T07:28:11.343Z,32.10
2018-04-20T07:30:37.162Z,29.60
2018-04-20T07:33:02.952Z,30.67
2018-04-20T07:35:28.773Z,37.20
2018-04-20T07:37:54.549Z,28.73
2018-04-20T07:40:20.720Z,36.27
2018-04-20T07:42:46.542Z,30.83
2018-04-20T07:45:12.323Z,26.57
2018-04-20T07:47:38.444Z,29.63
2018-04-20T07:50:04.327Z,32.80
2018-04-20T07:52:30.136Z,29.63
2018-04-20T07:54:55.974Z,30.17
2018-04-20T07:57:21.815Z,20.07
2018-04-20T07:59:47.619Z,21.70
2018-04-20T08:02:13.431Z,28.83
2018-04-20T08:04:39.249Z,32.43
2018-04-20T08:07:05.680Z,24.17
2018-04-20T08:09:31.757Z,42.67
2018-04-20T08:11:57.654Z,31.40
2018-04-20T08:14:23.633Z,26.57
2018-04-20T08:16:49.454Z,28.70
2018-04-20T08:19:15.278Z,37.50
2018-04-20T08:21:41.234Z,39.33
2018-04-20T08:24:07.023Z,37.17
2018-04-20T08:26:32.869Z,33.27
2018-04-20T08:28:58.670Z,24.50
2018-04-20T08:31:25.234Z,28.20
2018-04-20T08:33:51.050Z,28.63
2018-04-20T08:36:16.843Z,25.80
2018-04-20T08:38:42.669Z,37.97
2018-04-20T08:41:08.795Z,33.03
2018-04-20T08:43:34.645Z,36.23
2018-04-20T08:46:01.301Z,86.43
2018-04-20T08:48:27.142Z,26.63
2018-04-20T08:50:52.931Z,24.80
2018-04-20T08:53:18.723Z,24.00
2018-04-20T08:55:45.841Z,21.47
2018-04-20T08:58:11.661Z,24.70
2018-04-20T09:00:37.455Z,34.33
2018-04-20T09:03:03.268Z,20.80
2018-04-20T09:05:29.881Z,19.13
2018-04-20T09:07:55.709Z,26.00
2018-04-20T09:10:21.517Z,23.90
2018-04-20T09:12:47.322Z,21.03
2018-04-20T09:15:13.101Z,18.10
2018-04-20T09:17:39.264Z,15.17
2018-04-20T09:20:05.064Z,20.63
2018-04-20T09:22:30.861Z,22.27
2018-04-20T09:24:57.127Z,22.93
2018-04-20T09:27:22.916Z,22.50
2018-04-20T09:29:48.714Z,21.50
2018-04-20T09:32:14.527Z,16.17
2018-04-20T09:34:40.901Z,22.00
2018-04-20T09:37:06.700Z,25.73
2018-04-20T09:39:33.310Z,20.23
2018-04-20T09:41:59.143Z,23.93
2018-04-20T09:44:24.946Z,16.73
2018-04-20T09:46:50.749Z,18.20
2018-04-20T09:49:16.593Z,19.30
2018-04-20T09:51:43.241Z,19.77
2018-04-20T09:54:09.054Z,22.20
2018-04-20T09:56:34.882Z,22.83
2018-04-20T09:59:00.682Z,17.50
2018-04-20T10:01:26.765Z,19.03
2018-04-20T10:03:56.425Z,18.13
2018-04-20T10:06:22.914Z,24.40
2018-04-20T10:08:48.885Z,22.27
2018-04-20T10:11:14.679Z,18.97
2018-04-20T10:13:40.473Z,17.10
2018-04-20T10:16:07.864Z,17.60
2018-04-20T10:18:33.657Z,22.03
2018-04-20T10:20:59.483Z,21.80
2018-04-20T10:23:25.241Z,22.40
2018-04-20T10:25:51.342Z,24.77
2018-04-20T10:28:17.159Z,19.00
2018-04-20T10:30:42.965Z,18.63
2018-04-20T10:33:08.784Z,17.43
2018-04-20T10:35:34.599Z,14.43
2018-04-20T10:38:00.394Z,15.60
2018-04-20T10:40:26.182Z,16.50
2018-04-20T10:42:52.831Z,14.93
2018-04-20T10:45:18.628Z,12.87
2018-04-20T10:47:44.460Z,10.23
2018-04-20T10:50:10.358Z,15.43
2018-04-20T10:52:36.923Z,17.40
2018-04-20T10:55:02.737Z,12.07
2018-04-20T10:57:29.542Z,15.03
2018-04-20T10:59:55.342Z,13.37
2018-04-20T11:02:21.139Z,23.57
2018-04-20T11:04:46.954Z,15.03
2018-04-20T11:07:12.750Z,8.27
2018-04-20T11:09:38.557Z,14.70
2018-04-20T11:12:04.402Z,11.17
2018-04-20T11:14:30.207Z,10.00
2018-04-20T11:16:56.020Z,15.53
2018-04-20T11:19:21.918Z,9.87
2018-04-20T11:21:48.290Z,17.83
2018-04-20T11:24:14.094Z,9.07
2018-04-20T11:26:40.828Z,14.37
2018-04-20T11:29:06.629Z,14.63
2018-04-20T11:31:32.418Z,13.77
2018-04-20T11:33:58.233Z,12.57
2018-04-20T11:36:24.039Z,13.17
2018-04-20T11:38:49.863Z,15.13
2018-04-20T11:41:15.678Z,25.30
2018-04-20T11:43:42.136Z,35.27
2018-04-20T11:46:07.965Z,18.60
2018-04-20T11:48:34.921Z,23.13
2018-04-20T11:51:00.717Z,27.73
2018-04-20T11:53:26.519Z,18.23
2018-04-20T11:55:52.318Z,17.13
2018-04-20T11:58:18.122Z,23.73
2018-04-20T12:00:43.968Z,27.50
2018-04-20T12:03:09.749Z,22.00
2018-04-20T12:05:35.542Z,22.97
2018-04-20T12:08:01.365Z,30.20
2018-04-20T12:10:27.189Z,19.83
2018-04-20T12:12:53.038Z,28.40
2018-04-20T12:15:18.847Z,24.97
2018-04-20T12:17:44.629Z,24.60
2018-04-20T12:20:10.422Z,24.23
2018-04-20T12:22:36.213Z,30.70
2018-04-20T12:25:02.011Z,24.83
2018-04-20T12:27:27.831Z,28.80
2018-04-20T12:29:53.606Z,29.53
2018-04-20T12:32:19.399Z,26.93
2018-04-20T12:34:45.217Z,24.00
2018-04-20T12:37:11.030Z,32.50
2018-04-20T12:39:36.809Z,28.97
2018-04-20T12:42:02.635Z,26.77
2018-04-20T12:44:35.564Z,24.40
2018-04-20T12:47:01.390Z,32.60
2018-04-20T12:49:27.167Z,29.67
2018-04-20T12:51:52.986Z,39.97
2018-04-20T12:54:18.790Z,31.87
2018-04-20T12:56:44.594Z,32.83
2018-04-20T12:59:10.406Z,32.37
2018-04-20T13:01:37.077Z,42.20
2018-04-20T13:04:02.915Z,28.33
2018-04-20T13:06:28.719Z,35.33
2018-04-20T13:08:54.506Z,33.83
2018-04-20T13:11:20.362Z,29.50
2018-04-20T13:13:46.129Z,33.27
2018-04-20T13:16:11.965Z,26.27
2018-04-20T13:18:37.770Z,26.87
2018-04-20T13:21:03.573Z,29.80
2018-04-20T13:23:29.358Z,26.53
2018-04-20T13:25:55.214Z,24.20
2018-04-20T13:28:21.038Z,39.00
2018-04-20T13:30:46.822Z,42.40
2018-04-20T13:33:12.627Z,32.27
2018-04-20T13:35:38.431Z,39.63
2018-04-20T13:38:04.226Z,43.00
2018-04-20T13:40:30.026Z,33.87
2018-04-20T13:42:55.830Z,33.93
2018-04-20T13:45:21.632Z,46.63
2018-04-20T13:47:47.410Z,43.63
2018-04-20T13:50:13.350Z,38.60
2018-04-20T13:52:39.145Z,36.17
2018-04-20T13:55:04.945Z,44.90
2018-04-20T13:57:30.994Z,40.70
2018-04-20T13:59:56.785Z,32.00
2018-04-20T14:02:22.570Z,23.97
2018-04-20T14:04:48.457Z,25.27
2018-04-20T14:07:14.229Z,22.40
2018-04-20T14:09:40.025Z,18.17
2018-04-20T14:12:05.911Z,27.17
2018-04-20T14:14:31.688Z,27.87
2018-04-20T14:16:57.495Z,26.83
2018-04-20T14:19:23.278Z,22.73
2018-04-20T14:21:49.049Z,26.13
2018-04-20T14:24:14.878Z,22.30
2018-04-20T14:26:40.658Z,24.60
2018-04-20T14:29:06.465Z,32.17
2018-04-20T14:31:32.254Z,33.47
2018-04-20T14:33:58.229Z,25.40
2018-04-20T14:36:24.026Z,29.30
2018-04-20T14:38:49.810Z,31.10
2018-04-20T14:41:15.589Z,41.97
2018-04-20T14:43:41.455Z,39.70
2018-04-20T14:46:07.336Z,43.43
2018-04-20T14:48:33.158Z,41.80
2018-04-20T14:50:59.048Z,32.57
2018-04-20T14:53:24.785Z,31.60
2018-04-20T14:55:50.581Z,29.93
2018-04-20T14:58:16.380Z,28.63
2018-04-20T15:00:42.196Z,25.73
2018-04-20T15:03:08.146Z,20.87
2018-04-20T15:05:33.939Z,18.83
2018-04-20T15:07:59.736Z,17.43
2018-04-20T15:10:25.536Z,17.20
2018-04-20T15:12:51.318Z,12.70
2018-04-20T15:15:17.101Z,15.37
2018-04-20T15:17:42.895Z,19.20
2018-04-20T15:20:08.688Z,19.50
2018-04-20T15:22:34.474Z,23.47
2018-04-20T15:25:00.278Z,39.47
2018-04-20T15:27:26.065Z,39.80
2018-04-20T15:29:51.904Z,37.10
2018-04-20T15:32:17.673Z,39.27
2018-04-20T15:34:43.489Z,35.97
2018-04-20T15:37:09.320Z,42.37
2018-04-20T15:39:35.107Z,40.27
2018-04-20T15:42:00.890Z,43.90
2018-04-20T15:44:27.009Z,40.30
2018-04-20T15:46:52.847Z,40.40
2018-04-20T15:49:18.586Z,40.30
2018-04-20T15:51:44.421Z,43.37
2018-04-20T15:54:10.209Z,42.70
2018-04-20T15:56:35.989Z,44.30
2018-04-20T15:59:01.825Z,34.93
2018-04-20T16:01:27.627Z,45.17
2018-04-20T16:03:53.409Z,47.13
2018-04-20T16:06:19.189Z,59.97
2018-04-20T16:08:44.969Z,57.47
2018-04-20T16:11:10.780Z,62.67
2018-04-20T16:13:36.572Z,62.23
2018-04-20T16:16:02.352Z,70.60
2018-04-20T16:18:28.158Z,72.70
2018-04-20T16:20:53.942Z,70.47
2018-04-20T16:23:19.781Z,62.40
2018-04-20T16:25:45.629Z,60.03
2018-04-20T16:28:11.420Z,72.37
2018-04-20T16:30:37.215Z,73.70
2018-04-20T16:33:03.034Z,75.60
2018-04-20T16:35:28.825Z,73.97
2018-04-20T16:37:54.628Z,73.77
2018-04-20T16:40:20.727Z,77.40
2018-04-20T16:42:46.525Z,77.60
2018-04-20T16:45:12.326Z,71.83
2018-04-20T16:47:38.388Z,75.80
2018-04-20T16:50:04.197Z,78.80
2018-04-20T16:52:29.987Z,77.23
2018-04-20T16:54:55.874Z,75.30
2018-04-20T16:57:21.666Z,77.33
2018-04-20T16:59:47.441Z,77.40
2018-04-20T17:02:13.338Z,77.07
2018-04-20T17:04:39.128Z,80.50
2018-04-20T17:07:04.899Z,75.10
2018-04-20T17:09:30.917Z,80.17
2018-04-20T17:11:56.714Z,74.40
2018-04-20T17:14:22.517Z,69.10
2018-04-20T17:16:48.323Z,75.20
2018-04-20T17:19:14.132Z,78.40
2018-04-20T17:21:39.929Z,80.03
2018-04-20T17:24:05.837Z,68.13
2018-04-20T17:26:31.629Z,85.60
2018-04-20T17:28:57.409Z,82.30
2018-04-20T17:31:23.200Z,78.23
2018-04-20T17:33:48.977Z,80.67
2018-04-20T17:36:14.777Z,81.70
2018-04-20T17:38:40.565Z,82.67
2018-04-20T17:41:06.348Z,84.70
2018-04-20T17:43:32.165Z,85.00
2018-04-20T17:45:57.951Z,81.27
2018-04-20T17:48:23.735Z,82.50
2018-04-20T17:50:49.551Z,92.17
2018-04-20T17:53:15.342Z,82.97
2018-04-20T17:55:41.118Z,79.10
2018-04-20T17:58:06.905Z,83.27
2018-04-20T18:00:32.688Z,91.10
2018-04-20T18:03:05.369Z,81.13
2018-04-20T18:05:31.177Z,81.67
2018-04-20T18:07:56.960Z,89.17
2018-04-20T18:10:22.770Z,80.37
2018-04-20T18:12:48.545Z,80.67
2018-04-20T18:15:14.338Z,75.83
2018-04-20T18:17:40.416Z,78.03
2018-04-20T18:20:06.209Z,79.23
2018-04-20T18:22:31.996Z,81.23
2018-04-20T18:24:58.082Z,77.00
2018-04-20T18:27:23.870Z,90.77
2018-04-20T18:29:49.683Z,81.60
2018-04-20T18:32:15.505Z,77.53
2018-04-20T18:34:41.305Z,81.43
2018-04-20T18:37:07.181Z,76.67
2018-04-20T18:39:32.972Z,78.47
2018-04-20T18:41:58.768Z,76.80
2018-04-20T18:44:24.565Z,69.63
2018-04-20T18:46:50.368Z,82.20
2018-04-20T18:49:16.154Z,78.23
2018-04-20T18:51:41.949Z,68.23
2018-04-20T18:54:08.058Z,73.33
2018-04-20T18:56:33.841Z,73.07
2018-04-20T18:58:59.657Z,77.17
2018-04-20T19:01:25.455Z,78.27
2018-04-20T19:03:51.236Z,69.90
2018-04-20T19:06:17.041Z,80.93
2018-04-20T19:08:42.841Z,65.73
2018-04-20T19:11:08.642Z,69.70
2018-04-20T19:13:34.434Z,72.00
2018-04-20T19:16:00.236Z,57.63
2018-04-20T19:18:26.039Z,57.13
2018-04-20T19:20:51.833Z,63.20
2018-04-20T19:23:17.621Z,50.90
2018-04-20T19:25:43.401Z,47.40
2018-04-20T19:28:09.553Z,56.50
2018-04-20T19:30:35.349Z,53.00
2018-04-20T19:33:01.143Z,61.37
2018-04-20T19:35:26.951Z,48.70
2018-04-20T19:37:52.725Z,52.50
2018-04-20T19:40:18.519Z,54.27
2018-04-20T19:42:44.423Z,53.93
2018-04-20T19:45:10.253Z,60.63
2018-04-20T19:47:36.053Z,52.43
2018-04-20T19:50:01.870Z,53.53
2018-04-20T19:52:27.658Z,57.87
2018-04-20T19:54:53.466Z,55.10
2018-04-20T19:57:19.273Z,59.53
2018-04-20T19:59:45.067Z,65.47
2018-04-20T20:02:10.858Z,63.50
2018-04-20T20:04:36.667Z,63.43
2018-04-20T20:07:02.485Z,54.37
2018-04-20T20:09:28.258Z,54.73
2018-04-20T20:11:54.059Z,53.50
2018-04-20T20:14:19.869Z,59.60
2018-04-20T20:16:45.645Z,59.93
2018-04-20T20:19:11.441Z,57.00
2018-04-20T20:21:37.246Z,60.73
2018-04-20T20:24:03.041Z,58.47
2018-04-20T20:26:28.831Z,59.00
2018-04-20T20:28:54.645Z,61.80
2018-04-20T20:31:20.421Z,72.57
2018-04-20T20:33:46.208Z,62.23
2018-04-20T20:36:12.009Z,56.07
2018-04-20T20:38:37.791Z,62.80
2018-04-20T20:41:03.588Z,66.40
2018-04-20T20:43:29.625Z,65.80
2018-04-20T20:45:55.423Z,63.53
2018-04-20T20:48:21.210Z,60.40
2018-04-20T20:50:47.030Z,72.80
2018-04-20T20:53:12.805Z,79.30
2018-04-20T20:55:38.589Z,63.30
2018-04-20T20:58:04.391Z,67.63
2018-04-20T21:00:30.178Z,64.63
2018-04-20T21:02:56.013Z,69.00
2018-04-20T21:05:21.814Z,79.83
2018-04-20T21:07:47.618Z,67.50
2018-04-20T21:10:13.423Z,71.23
2018-04-20T21:12:39.222Z,73.83
2018-04-20T21:15:05.014Z,74.87
2018-04-20T21:17:30.823Z,67.13
2018-04-20T21:19:56.627Z,72.17
2018-04-20T21:22:22.563Z,65.63
2018-04-20T21:24:48.365Z,74.53
2018-04-20T21:27:14.181Z,70.53
2018-04-20T21:29:39.969Z,67.63
2018-04-20T21:32:05.745Z,75.87
2018-04-20T21:34:31.546Z,67.30
2018-04-20T21:36:57.338Z,74.30
2018-04-20T21:39:23.129Z,82.50
2018-04-20T21:41:48.938Z,71.10
2018-04-20T21:44:14.714Z,75.03
2018-04-20T21:46:40.529Z,77.43
2018-04-20T21:49:06.322Z,82.20
2018-04-20T21:51:32.114Z,77.07
2018-04-20T21:53:57.919Z,83.53
2018-04-20T21:56:23.721Z,81.97
2018-04-20T21:58:49.514Z,79.03
2018-04-20T22:01:15.332Z,85.20
2018-04-20T22:03:41.130Z,84.27
2018-04-20T22:06:06.938Z,86.77
2018-04-20T22:08:32.748Z,95.40
2018-04-20T22:10:58.558Z,74.17
2018-04-20T22:13:24.359Z,85.43
2018-04-20T22:15:50.164Z,89.60
2018-04-20T22:18:15.949Z,80.37
2018-04-20T22:20:41.728Z,96.07
2018-04-20T22:23:07.546Z,100.87
2018-04-20T22:25:33.342Z,100.43
2018-04-20T22:27:59.147Z,96.60
2018-04-20T22:30:24.958Z,108.70
2018-04-20T22:32:50.996Z,107.30
2018-04-20T22:35:16.782Z,101.30
2018-04-20T22:37:42.581Z,108.00
2018-04-20T22:40:08.381Z,111.27
2018-04-20T22:42:34.170Z,119.93
2018-04-20T22:44:59.963Z,112.57
2018-04-20T22:47:25.737Z,117.30
2018-04-20T22:49:51.540Z,128.87
2018-04-20T22:52:17.326Z,118.33
2018-04-20T22:54:43.122Z,122.53
2018-04-20T22:57:08.935Z,132.87
2018-04-20T22:59:34.949Z,139.17
2018-04-20T23:02:00.803Z,137.57
2018-04-20T23:04:26.608Z,142.37
2018-04-20T23:06:52.394Z,131.23
2018-04-20T23:09:18.202Z,139.10
2018-04-20T23:11:43.975Z,133.67
2018-04-20T23:14:09.755Z,138.30
2018-04-20T23:16:35.556Z,156.43
2018-04-20T23:19:01.334Z,168.83
2018-04-20T23:21:27.125Z,173.93
2018-04-20T23:23:53.162Z,171.83
2018-04-20T23:26:18.959Z,158.03
2018-04-20T23:28:44.746Z,148.07
2018-04-20T23:31:10.541Z,157.90
2018-04-20T23:33:36.321Z,201.47
2018-04-20T23:36:02.153Z,169.13
2018-04-20T23:38:27.932Z,186.70
2018-04-20T23:40:53.725Z,191.93
2018-04-20T23:43:19.669Z,159.80
2018-04-20T23:45:45.462Z,156.70
2018-04-20T23:48:11.251Z,156.10
2018-04-20T23:50:37.158Z,162.00
2018-04-20T23:53:02.954Z,165.57
2018-04-20T23:55:28.740Z,163.40
2018-04-20T23:57:54.547Z,177.70
